createdAt,value
2022-11-26T00:00:37.528Z,4.20
2022-11-26T00:03:07.750Z,4.50
2022-11-26T00:05:37.026Z,4.47
2022-11-26T00:08:05.793Z,4.63
2022-11-26T00:10:42.106Z,4.47
2022-11-26T00:13:17.808Z,4.47
2022-11-26T00:15:48.045Z,4.40
2022-11-26T00:18:16.599Z,4.47
2022-11-26T00:20:47.230Z,4.30
2022-11-26T00:23:22.016Z,4.43
2022-11-26T00:25:53.666Z,4.30
2022-11-26T00:28:29.207Z,4.10
2022-11-26T00:31:01.519Z,4.20
2022-11-26T00:33:33.431Z,4.60
2022-11-26T00:36:07.245Z,4.30
2022-11-26T00:38:39.205Z,4.50
2022-11-26T00:41:16.432Z,4.40
2022-11-26T00:43:46.141Z,4.80
2022-11-26T00:46:17.845Z,4.90
2022-11-26T00:48:46.681Z,4.50
2022-11-26T00:51:18.435Z,4.50
2022-11-26T00:53:48.454Z,4.53
2022-11-26T00:56:20.344Z,4.57
2022-11-26T00:58:50.692Z,4.47
2022-11-26T01:01:23.807Z,4.80
2022-11-26T01:03:54.947Z,4.50
2022-11-26T01:06:28.966Z,4.73
2022-11-26T01:09:00.286Z,4.60
2022-11-26T01:11:29.039Z,4.67
2022-11-26T01:13:57.632Z,4.80
2022-11-26T01:16:30.095Z,4.80
2022-11-26T01:19:02.451Z,4.80
2022-11-26T01:21:59.086Z,4.70
2022-11-26T01:24:39.331Z,4.80
2022-11-26T01:27:13.097Z,5.27
2022-11-26T01:29:41.599Z,5.10
2022-11-26T01:32:12.257Z,4.80
2022-11-26T01:34:41.217Z,4.80
2022-11-26T01:37:14.797Z,4.70
2022-11-26T01:39:43.781Z,5.67
2022-11-26T01:42:27.635Z,5.20
2022-11-26T01:44:56.571Z,4.90
2022-11-26T01:47:30.618Z,4.70
2022-11-26T01:50:36.492Z,5.07
2022-11-26T01:53:08.649Z,5.07
2022-11-26T01:55:43.202Z,4.70
2022-11-26T01:58:18.955Z,4.53
2022-11-26T02:00:50.586Z,4.90
2022-11-26T02:03:21.963Z,4.90
2022-11-26T02:06:09.388Z,5.07
2022-11-26T02:08:39.409Z,4.53
2022-11-26T02:11:19.592Z,5.00
2022-11-26T02:13:50.304Z,4.90
2022-11-26T02:16:33.368Z,4.87
2022-11-26T02:19:31.565Z,4.50
2022-11-26T02:22:11.485Z,4.50
2022-11-26T02:24:54.737Z,4.53
2022-11-26T02:27:52.234Z,4.93
2022-11-26T02:30:22.050Z,5.03
2022-11-26T02:32:59.593Z,4.80
2022-11-26T02:35:34.345Z,4.70
2022-11-26T02:38:08.538Z,5.53
2022-11-26T02:40:37.305Z,4.90
2022-11-26T02:43:07.552Z,4.60
2022-11-26T02:45:41.712Z,4.90
2022-11-26T02:48:16.874Z,4.77
2022-11-26T02:50:51.286Z,4.77
2022-11-26T02:53:23.992Z,4.53
2022-11-26T02:55:58.724Z,4.87
2022-11-26T02:58:27.832Z,4.70
2022-11-26T03:01:00.915Z,5.20
2022-11-26T03:03:33.881Z,5.13
2022-11-26T03:06:05.553Z,4.90
2022-11-26T03:08:35.765Z,4.70
2022-11-26T03:11:04.653Z,5.00
2022-11-26T03:13:33.109Z,4.80
2022-11-26T03:16:07.112Z,4.97
2022-11-26T03:18:40.070Z,5.10
2022-11-26T03:21:11.696Z,4.37
2022-11-26T03:23:40.902Z,5.30
2022-11-26T03:26:10.922Z,4.73
2022-11-26T03:28:39.986Z,4.60
2022-11-26T03:31:10.820Z,4.67
2022-11-26T03:33:39.488Z,4.73
2022-11-26T03:36:09.316Z,4.63
2022-11-26T03:38:39.499Z,4.77
2022-11-26T03:41:11.208Z,4.60
2022-11-26T03:43:40.091Z,4.60
2022-11-26T03:46:10.610Z,5.30
2022-11-26T03:48:40.910Z,5.10
2022-11-26T03:51:10.407Z,5.40
2022-11-26T03:53:39.805Z,5.07
2022-11-26T03:56:10.388Z,5.20
2022-11-26T03:58:40.158Z,5.30
2022-11-26T04:01:15.711Z,4.73
2022-11-26T04:03:44.168Z,5.37
2022-11-26T04:06:13.618Z,4.93
2022-11-26T04:08:42.217Z,5.40
2022-11-26T04:11:10.758Z,5.03
2022-11-26T04:13:39.518Z,4.70
2022-11-26T04:16:08.806Z,4.97
2022-11-26T04:18:39.710Z,5.33
2022-11-26T04:21:10.609Z,4.97
2022-11-26T04:23:39.908Z,5.10
2022-11-26T04:26:11.316Z,5.07
2022-11-26T04:28:40.699Z,5.27
2022-11-26T04:31:09.112Z,5.17
2022-11-26T04:33:39.675Z,5.10
2022-11-26T04:36:10.677Z,5.00
2022-11-26T04:38:40.491Z,5.30
2022-11-26T04:41:10.279Z,4.90
2022-11-26T04:43:38.763Z,5.10
2022-11-26T04:46:08.724Z,5.30
2022-11-26T04:48:38.597Z,5.10
2022-11-26T04:51:07.584Z,5.40
2022-11-26T04:53:36.842Z,5.00
2022-11-26T04:56:07.913Z,4.80
2022-11-26T04:58:37.277Z,4.90
2022-11-26T05:01:05.986Z,5.03
2022-11-26T05:03:38.303Z,4.93
2022-11-26T05:06:11.747Z,5.90
2022-11-26T05:08:40.701Z,5.57
2022-11-26T05:11:09.269Z,5.13
2022-11-26T05:13:37.852Z,4.70
2022-11-26T05:16:07.131Z,5.20
2022-11-26T05:18:36.466Z,5.27
2022-11-26T05:21:08.740Z,5.40
2022-11-26T05:23:38.038Z,4.93
2022-11-26T05:26:06.942Z,5.70
2022-11-26T05:28:35.957Z,5.00
2022-11-26T05:31:08.411Z,5.00
2022-11-26T05:33:37.057Z,5.30
2022-11-26T05:36:08.855Z,5.30
2022-11-26T05:38:41.269Z,5.50
2022-11-26T05:41:10.155Z,5.73
2022-11-26T05:43:39.606Z,5.70
2022-11-26T05:46:09.515Z,4.93
2022-11-26T05:48:41.900Z,5.17
2022-11-26T05:51:10.736Z,5.90
2022-11-26T05:53:44.304Z,7.10
2022-11-26T05:56:12.841Z,6.20
2022-11-26T05:58:43.646Z,6.37
2022-11-26T06:01:14.011Z,7.57
2022-11-26T06:03:43.454Z,5.80
2022-11-26T06:06:12.255Z,5.67
2022-11-26T06:08:42.192Z,5.73
2022-11-26T06:11:15.079Z,5.87
2022-11-26T06:13:43.579Z,6.20
2022-11-26T06:16:12.966Z,5.80
2022-11-26T06:18:41.716Z,6.10
2022-11-26T06:21:10.241Z,5.43
2022-11-26T06:23:51.639Z,6.10
2022-11-26T06:26:21.738Z,5.90
2022-11-26T06:28:50.395Z,6.43
2022-11-26T06:31:18.737Z,6.10
2022-11-26T06:33:47.494Z,5.67
2022-11-26T06:36:15.978Z,6.37
2022-11-26T06:38:45.538Z,6.57
2022-11-26T06:41:13.811Z,6.37
2022-11-26T06:43:42.323Z,6.37
2022-11-26T06:46:12.602Z,6.50
2022-11-26T06:48:41.361Z,6.20
2022-11-26T06:51:12.080Z,6.83
2022-11-26T06:53:41.047Z,6.83
2022-11-26T06:56:18.782Z,6.43
2022-11-26T06:58:48.227Z,6.10
2022-11-26T07:01:18.479Z,6.77
2022-11-26T07:03:46.994Z,6.30
2022-11-26T07:06:19.749Z,6.53
2022-11-26T07:08:48.789Z,6.60
2022-11-26T07:11:20.576Z,6.40
2022-11-26T07:13:50.367Z,6.43
2022-11-26T07:16:19.437Z,6.57
2022-11-26T07:18:50.460Z,6.60
2022-11-26T07:21:19.862Z,7.43
2022-11-26T07:23:48.856Z,6.47
2022-11-26T07:26:22.322Z,6.80
2022-11-26T07:28:51.861Z,6.37
2022-11-26T07:31:23.681Z,6.43
2022-11-26T07:33:52.573Z,6.90
2022-11-26T07:36:23.631Z,6.40
2022-11-26T07:38:52.364Z,6.57
2022-11-26T07:41:23.098Z,6.50
2022-11-26T07:43:51.830Z,6.33
2022-11-26T07:46:23.006Z,6.33
2022-11-26T07:48:51.721Z,6.20
2022-11-26T07:51:23.998Z,6.30
2022-11-26T07:53:53.106Z,6.27
2022-11-26T07:56:22.921Z,6.13
2022-11-26T07:58:52.123Z,6.80
2022-11-26T08:01:47.239Z,6.50
2022-11-26T08:04:15.906Z,6.77
2022-11-26T08:06:44.127Z,6.47
2022-11-26T08:09:12.319Z,6.37
2022-11-26T08:11:42.336Z,6.70
2022-11-26T08:14:13.077Z,6.60
2022-11-26T08:16:41.734Z,6.50
2022-11-26T08:19:13.200Z,6.80
2022-11-26T08:21:42.066Z,6.90
2022-11-26T08:24:16.004Z,6.97
2022-11-26T08:26:47.722Z,7.10
2022-11-26T08:29:18.747Z,6.80
2022-11-26T08:31:47.904Z,7.53
2022-11-26T08:34:18.036Z,7.00
2022-11-26T08:36:51.341Z,6.97
2022-11-26T08:39:20.720Z,7.57
2022-11-26T08:41:52.909Z,7.57
2022-11-26T08:44:28.841Z,7.73
2022-11-26T08:47:18.675Z,7.47
2022-11-26T08:49:52.000Z,7.40
2022-11-26T08:52:37.573Z,7.90
2022-11-26T08:55:13.193Z,8.13
2022-11-26T08:57:50.721Z,7.17
2022-11-26T09:00:21.265Z,7.60
2022-11-26T09:02:53.271Z,8.20
2022-11-26T09:05:23.340Z,7.60
2022-11-26T09:07:53.591Z,7.93
2022-11-26T09:10:26.746Z,8.17
2022-11-26T09:13:02.239Z,8.20
2022-11-26T09:15:43.528Z,8.50
2022-11-26T09:18:14.045Z,8.30
2022-11-26T09:20:43.364Z,8.20
2022-11-26T09:23:17.384Z,8.70
2022-11-26T09:25:46.210Z,8.73
2022-11-26T09:32:21.909Z,8.17
2022-11-26T09:34:45.764Z,8.60
2022-11-26T09:37:21.617Z,9.10
2022-11-26T09:39:53.894Z,8.70
2022-11-26T09:42:34.324Z,8.80
2022-11-26T09:45:16.748Z,8.83
2022-11-26T09:47:54.210Z,8.77
2022-11-26T09:56:39.524Z,8.80
2022-11-26T09:59:17.798Z,9.20
2022-11-26T10:01:50.253Z,8.77
2022-11-26T10:04:37.176Z,8.77
2022-11-26T10:07:10.853Z,8.83
2022-11-26T10:10:04.931Z,9.43
2022-11-26T10:16:04.674Z,9.43
2022-11-26T10:25:26.457Z,9.13
2022-11-26T10:27:57.259Z,9.93
2022-11-26T10:30:45.407Z,10.00
2022-11-26T10:33:23.507Z,9.63
2022-11-26T10:39:06.351Z,9.60
2022-11-26T10:41:40.317Z,9.87
2022-11-26T10:44:52.677Z,10.07
2022-11-26T10:47:31.441Z,9.27
2022-11-26T10:53:24.771Z,9.40
2022-11-26T10:56:15.171Z,9.03
2022-11-26T10:58:49.672Z,9.50
2022-11-26T11:04:44.721Z,9.37
2022-11-26T11:10:20.254Z,9.80
2022-11-26T11:13:04.629Z,9.40
2022-11-26T11:15:39.261Z,10.03
2022-11-26T11:18:17.234Z,9.67
2022-11-26T11:20:54.098Z,9.40
2022-11-26T11:23:45.806Z,9.63
2022-11-26T11:26:22.548Z,9.03
2022-11-26T11:28:56.094Z,9.67
2022-11-26T11:31:30.341Z,9.57
2022-11-26T11:34:21.743Z,10.13
2022-11-26T11:39:55.058Z,9.83
2022-11-26T11:42:29.503Z,8.80
2022-11-26T11:45:02.667Z,9.80
2022-11-26T11:47:38.267Z,8.90
2022-11-26T11:50:19.333Z,9.30
2022-11-26T11:53:01.698Z,9.40
2022-11-26T11:59:07.007Z,9.40
2022-11-26T12:05:19.294Z,10.50
2022-11-26T12:07:59.709Z,9.73
2022-11-26T12:10:40.581Z,9.67
2022-11-26T12:13:15.312Z,10.00
2022-11-26T12:15:53.549Z,9.97
2022-11-26T12:18:35.702Z,9.63
2022-11-26T12:21:13.789Z,10.57
2022-11-26T12:23:50.524Z,10.67
2022-11-26T12:26:26.039Z,10.47
2022-11-26T12:28:58.712Z,10.90
2022-11-26T12:31:34.594Z,11.07
2022-11-26T12:34:13.038Z,11.33
2022-11-26T12:36:50.060Z,11.03
2022-11-26T12:39:32.814Z,11.33
2022-11-26T12:42:07.641Z,10.30
2022-11-26T12:44:44.397Z,11.17
2022-11-26T12:47:22.208Z,11.37
2022-11-26T12:50:09.841Z,10.87
2022-11-26T12:52:46.150Z,10.53
2022-11-26T12:55:20.902Z,10.43
2022-11-26T12:57:53.350Z,11.47
2022-11-26T13:00:31.359Z,10.03
2022-11-26T13:03:05.213Z,9.60
2022-11-26T13:05:51.809Z,10.43
2022-11-26T13:08:37.824Z,10.57
2022-11-26T13:11:21.993Z,9.77
2022-11-26T13:14:03.068Z,9.90
2022-11-26T13:16:38.455Z,9.73
2022-11-26T13:19:12.369Z,9.67
2022-11-26T13:22:19.114Z,10.77
2022-11-26T13:25:01.158Z,11.07
2022-11-26T13:27:41.303Z,9.23
2022-11-26T13:30:24.748Z,9.50
2022-11-26T13:33:32.327Z,9.80
2022-11-26T13:36:20.348Z,9.30
2022-11-26T13:39:11.724Z,11.80
2022-11-26T13:42:08.763Z,9.43
2022-11-26T13:45:05.882Z,10.47
2022-11-26T13:47:40.507Z,9.83
2022-11-26T13:50:17.214Z,10.57
2022-11-26T13:52:51.883Z,9.80
2022-11-26T13:55:30.663Z,10.40
2022-11-26T13:58:03.007Z,10.37
2022-11-26T14:00:33.425Z,10.23
2022-11-26T14:03:03.354Z,10.73
2022-11-26T14:06:10.348Z,10.87
2022-11-26T14:08:42.018Z,10.10
2022-11-26T14:11:19.717Z,10.73
2022-11-26T14:14:30.181Z,10.90
2022-11-26T14:17:24.265Z,11.27
2022-11-26T14:20:13.361Z,11.87
2022-11-26T14:22:45.059Z,12.43
2022-11-26T14:25:15.835Z,11.93
2022-11-26T14:27:56.230Z,11.63
2022-11-26T14:30:27.710Z,11.47
2022-11-26T14:33:14.896Z,11.63
2022-11-26T14:35:57.083Z,10.93
2022-11-26T14:38:29.576Z,12.33
2022-11-26T14:41:00.360Z,11.23
2022-11-26T14:43:30.935Z,10.97
2022-11-26T14:46:10.819Z,10.70
2022-11-26T14:48:45.172Z,11.20
2022-11-26T14:51:22.870Z,11.80
2022-11-26T14:53:53.264Z,11.43
2022-11-26T14:56:25.447Z,12.17
2022-11-26T14:58:59.546Z,11.87
2022-11-26T15:01:32.048Z,11.40
2022-11-26T15:04:02.611Z,11.20
2022-11-26T15:06:38.327Z,11.73
2022-11-26T15:09:11.564Z,11.27
2022-11-26T15:11:45.841Z,11.03
2022-11-26T15:14:23.870Z,12.17
2022-11-26T15:17:02.423Z,13.03
2022-11-26T15:19:36.728Z,11.87
2022-11-26T15:22:10.436Z,12.93
2022-11-26T15:24:42.417Z,12.40
2022-11-26T15:27:30.721Z,13.43
2022-11-26T15:30:03.647Z,12.50
2022-11-26T15:32:38.498Z,11.87
2022-11-26T15:38:15.860Z,11.87
2022-11-26T15:40:49.970Z,12.27
2022-11-26T15:43:27.161Z,12.03
2022-11-26T15:46:00.531Z,12.33
2022-11-26T15:48:50.817Z,12.77
2022-11-26T15:51:32.134Z,12.60
2022-11-26T15:54:07.995Z,13.80
2022-11-26T15:56:40.423Z,14.63
2022-11-26T15:59:20.085Z,13.20
2022-11-26T16:01:50.190Z,13.80
2022-11-26T16:04:44.377Z,15.03
2022-11-26T16:07:16.798Z,13.97
2022-11-26T16:09:46.325Z,13.80
2022-11-26T16:12:34.732Z,15.93
2022-11-26T16:15:21.751Z,15.97
2022-11-26T16:17:56.481Z,13.97
2022-11-26T16:23:23.141Z,15.53
2022-11-26T16:26:13.071Z,16.60
2022-11-26T16:28:44.387Z,14.20
2022-11-26T16:31:13.208Z,14.53
2022-11-26T16:33:48.285Z,17.33
2022-11-26T16:36:39.123Z,16.57
2022-11-26T16:39:11.202Z,17.33
2022-11-26T16:41:47.596Z,15.07
2022-11-26T16:44:18.077Z,16.87
2022-11-26T16:46:59.530Z,16.30
2022-11-26T16:49:32.203Z,16.20
2022-11-26T16:52:13.209Z,16.10
2022-11-26T16:54:44.603Z,15.60
2022-11-26T16:57:16.429Z,15.73
2022-11-26T16:59:47.475Z,15.37
2022-11-26T17:02:18.397Z,16.40
2022-11-26T17:04:48.436Z,16.30
2022-11-26T17:07:21.202Z,15.77
2022-11-26T17:09:50.759Z,15.17
2022-11-26T17:12:22.651Z,15.57
2022-11-26T17:17:31.141Z,16.53
2022-11-26T17:20:02.194Z,16.17
2022-11-26T17:22:32.514Z,16.53
2022-11-26T17:25:08.953Z,18.70
2022-11-26T17:27:39.361Z,17.50
2022-11-26T17:30:09.824Z,17.73
2022-11-26T17:32:43.689Z,16.20
2022-11-26T17:35:17.232Z,14.03
2022-11-26T17:37:46.783Z,15.17
2022-11-26T17:40:19.123Z,15.63
2022-11-26T17:42:50.949Z,16.07
2022-11-26T17:48:24.264Z,16.73
2022-11-26T17:50:59.064Z,15.90
2022-11-26T17:56:28.014Z,15.00
2022-11-26T18:04:21.956Z,16.73
2022-11-26T18:07:03.322Z,16.87
2022-11-26T18:09:34.803Z,16.00
2022-11-26T18:12:10.066Z,16.90
2022-11-26T18:14:47.662Z,16.27
2022-11-26T18:17:18.435Z,15.47
2022-11-26T18:19:54.119Z,16.03
2022-11-26T18:22:28.545Z,17.63
2022-11-26T18:25:14.624Z,17.20
2022-11-26T18:27:43.985Z,16.60
2022-11-26T18:30:16.038Z,16.37
2022-11-26T18:32:51.158Z,15.53
2022-11-26T18:35:25.247Z,14.63
2022-11-26T18:37:59.185Z,15.23
2022-11-26T18:40:30.614Z,15.70
2022-11-26T18:43:00.177Z,15.07
2022-11-26T18:48:20.052Z,15.27
2022-11-26T18:51:01.148Z,18.50
2022-11-26T18:53:52.637Z,16.70
2022-11-26T18:56:25.736Z,17.83
2022-11-26T18:58:58.405Z,17.53
2022-11-26T19:04:25.862Z,16.60
2022-11-26T19:06:57.589Z,16.10
2022-11-26T19:09:28.813Z,16.33
2022-11-26T19:12:03.690Z,15.93
2022-11-26T19:14:33.252Z,16.30
2022-11-26T19:17:03.637Z,17.53
2022-11-26T19:19:33.583Z,15.90
2022-11-26T19:22:02.610Z,17.17
2022-11-26T19:24:32.858Z,15.43
2022-11-26T19:27:01.805Z,16.50
2022-11-26T19:29:30.987Z,17.67
2022-11-26T19:31:59.421Z,17.57
2022-11-26T19:34:28.490Z,17.67
2022-11-26T19:36:58.090Z,18.07
2022-11-26T19:39:27.867Z,17.03
2022-11-26T19:42:00.438Z,17.03
2022-11-26T19:44:29.349Z,16.17
2022-11-26T19:46:59.167Z,18.40
2022-11-26T19:49:29.306Z,18.00
2022-11-26T19:51:59.373Z,19.70
2022-11-26T19:54:29.117Z,18.57
2022-11-26T19:57:00.644Z,17.87
2022-11-26T19:59:30.825Z,17.70
2022-11-26T20:02:01.073Z,18.37
2022-11-26T20:04:32.681Z,17.93
2022-11-26T20:07:01.729Z,18.73
2022-11-26T20:09:30.356Z,19.40
2022-11-26T20:12:01.771Z,20.67
2022-11-26T20:14:31.480Z,18.13
2022-11-26T20:17:01.350Z,18.53
2022-11-26T20:19:30.194Z,18.93
2022-11-26T20:21:59.739Z,18.53
2022-11-26T20:24:28.346Z,18.70
2022-11-26T20:26:57.981Z,18.33
2022-11-26T20:29:31.255Z,19.47
2022-11-26T20:32:00.507Z,18.87
2022-11-26T20:34:30.271Z,18.93
2022-11-26T20:36:59.127Z,20.80
2022-11-26T20:39:30.006Z,19.27
2022-11-26T20:41:58.945Z,19.13
2022-11-26T20:44:29.295Z,19.87
2022-11-26T20:46:59.370Z,20.10
2022-11-26T20:49:33.386Z,22.20
2022-11-26T20:52:03.416Z,20.23
2022-11-26T20:54:36.355Z,19.83
2022-11-26T20:57:07.783Z,19.07
2022-11-26T20:59:42.079Z,21.37
2022-11-26T21:02:11.682Z,21.13
2022-11-26T21:04:41.448Z,21.27
2022-11-26T21:07:09.987Z,20.67
2022-11-26T21:09:40.481Z,22.30
2022-11-26T21:12:09.113Z,20.87
2022-11-26T21:14:39.624Z,21.00
2022-11-26T21:17:08.814Z,23.50
2022-11-26T21:19:40.219Z,24.03
2022-11-26T21:22:12.072Z,20.57
2022-11-26T21:24:41.124Z,22.87
2022-11-26T21:27:09.739Z,20.50
2022-11-26T21:29:42.603Z,20.67
2022-11-26T21:32:11.625Z,21.07
2022-11-26T21:34:39.917Z,21.27
2022-11-26T21:37:09.758Z,20.73
2022-11-26T21:39:38.990Z,20.83
2022-11-26T21:42:08.202Z,19.37
2022-11-26T21:44:54.903Z,20.03
2022-11-26T21:47:26.578Z,20.17
2022-11-26T21:49:55.426Z,19.40
2022-11-26T21:52:23.979Z,19.47
2022-11-26T21:54:59.628Z,21.83
2022-11-26T21:57:32.571Z,20.43
2022-11-26T22:00:01.537Z,20.03
2022-11-26T22:02:31.688Z,18.80
2022-11-26T22:05:00.961Z,18.73
2022-11-26T22:07:30.394Z,20.27
2022-11-26T22:09:59.015Z,20.57
2022-11-26T22:12:27.868Z,20.90
2022-11-26T22:14:57.276Z,20.37
2022-11-26T22:17:25.787Z,19.70
2022-11-26T22:19:56.193Z,20.23
2022-11-26T22:22:24.856Z,20.67
2022-11-26T22:24:53.237Z,19.07
2022-11-26T22:27:22.481Z,18.40
2022-11-26T22:29:50.666Z,19.97
2022-11-26T22:32:19.988Z,19.30
2022-11-26T22:34:48.905Z,21.63
2022-11-26T22:37:18.731Z,20.70
2022-11-26T22:39:51.158Z,19.83
2022-11-26T22:42:24.243Z,21.07
2022-11-26T22:44:52.519Z,19.87
2022-11-26T22:47:21.103Z,21.10
2022-11-26T22:49:50.194Z,20.70
2022-11-26T22:52:21.456Z,20.57
2022-11-26T22:54:49.939Z,20.33
2022-11-26T22:57:24.975Z,20.13
2022-11-26T22:59:54.111Z,20.53
2022-11-26T23:02:23.556Z,19.67
2022-11-26T23:04:53.769Z,18.70
2022-11-26T23:07:23.875Z,20.13
2022-11-26T23:09:52.223Z,19.97
2022-11-26T23:12:20.687Z,21.53
2022-11-26T23:14:50.506Z,20.23
2022-11-26T23:17:19.197Z,19.43
2022-11-26T23:19:48.116Z,20.20
2022-11-26T23:22:16.641Z,19.30
2022-11-26T23:24:46.622Z,18.90
2022-11-26T23:27:14.757Z,19.10
2022-11-26T23:29:45.450Z,20.37
2022-11-26T23:32:13.802Z,21.10
2022-11-26T23:34:42.034Z,20.23
2022-11-26T23:37:10.548Z,20.33
2022-11-26T23:39:39.139Z,20.90
2022-11-26T23:42:09.090Z,19.60
2022-11-26T23:44:37.762Z,20.10
2022-11-26T23:47:06.309Z,20.47
2022-11-26T23:49:34.678Z,19.83
2022-11-26T23:52:04.400Z,20.03
2022-11-26T23:54:32.715Z,18.77
2022-11-26T23:57:01.050Z,19.27
2022-11-26T23:59:31.628Z,18.43
